Time,TemperatureF,DewpointF,PressureIn,WindDirection,WindDirectionDegrees,WindSpeedMPH,WindSpeedGustMPH,Humidity,HourlyPrecipIn,Conditions,Clouds,dailyrainin,SoftwareType,DateUTC
2013-10-07 00:00:00,75.5,68.2,30.04,ENE,68,2.0,-999.0,78,0.00,,,0.00,Wunderground v.1.15,2013-10-07 10:00:00,
2013-10-07 00:05:00,75.5,68.2,30.04,ENE,68,2.0,-999.0,78,0.00,,,0.00,Wunderground v.1.15,2013-10-07 10:05:00,
2013-10-07 00:10:00,75.5,68.2,30.04,ENE,68,2.0,-999.0,78,0.00,,,0.00,Wunderground v.1.15,2013-10-07 10:10:00,
2013-10-07 00:15:00,75.5,68.2,30.04,ENE,68,2.0,-999.0,78,0.00,,,0.00,Wunderground v.1.15,2013-10-07 10:15:00,
2013-10-07 00:20:00,75.5,68.2,30.04,ENE,68,2.0,-999.0,78,0.00,,,0.00,Wunderground v.1.15,2013-10-07 10:20:00,
2013-10-07 00:25:00,75.5,68.2,30.04,ENE,68,2.0,-999.0,78,0.00,,,0.00,Wunderground v.1.15,2013-10-07 10:25:00,
2013-10-07 00:30:00,75.5,68.2,30.04,ENE,68,2.0,-999.0,78,0.00,,,0.00,Wunderground v.1.15,2013-10-07 10:30:00,
2013-10-07 00:35:00,75.5,68.2,30.04,ENE,68,2.0,-999.0,78,0.00,,,0.00,Wunderground v.1.15,2013-10-07 10:35:00,
2013-10-07 00:40:00,75.5,68.2,30.04,ENE,68,2.0,-999.0,78,0.00,,,0.00,Wunderground v.1.15,2013-10-07 10:40:00,
2013-10-07 00:45:00,75.4,66.5,30.03,NE,45,4.0,-999.0,74,0.00,,,0.00,Wunderground v.1.15,2013-10-07 10:45:00,
2013-10-07 00:50:00,75.4,66.5,30.03,NE,45,4.0,-999.0,74,0.00,,,0.00,Wunderground v.1.15,2013-10-07 10:50:00,
2013-10-07 00:55:00,75.4,66.5,30.03,NE,45,4.0,-999.0,74,0.00,,,0.00,Wunderground v.1.15,2013-10-07 10:55:00,
2013-10-07 01:00:00,75.4,66.5,30.03,NE,45,4.0,-999.0,74,0.00,,,0.00,Wunderground v.1.15,2013-10-07 11:00:00,
2013-10-07 01:05:00,75.4,66.5,30.03,NE,45,4.0,-999.0,74,0.00,,,0.00,Wunderground v.1.15,2013-10-07 11:05:00,
2013-10-07 01:10:00,75.4,66.5,30.03,NE,45,4.0,-999.0,74,0.00,,,0.00,Wunderground v.1.15,2013-10-07 11:10:00,
2013-10-07 01:15:00,76.0,68.6,30.03,NE,45,5.0,-999.0,78,0.00,,,0.00,Wunderground v.1.15,2013-10-07 11:15:00,
2013-10-07 01:20:00,76.0,68.6,30.03,NE,45,5.0,-999.0,78,0.00,,,0.00,Wunderground v.1.15,2013-10-07 11:20:00,
2013-10-07 01:25:00,76.0,68.6,30.03,NE,45,5.0,-999.0,78,0.00,,,0.00,Wunderground v.1.15,2013-10-07 11:25:00,
2013-10-07 01:30:00,76.0,68.6,30.03,NE,45,5.0,-999.0,78,0.00,,,0.00,Wunderground v.1.15,2013-10-07 11:30:00,
2013-10-07 01:35:00,76.0,68.6,30.03,NE,45,5.0,-999.0,78,0.00,,,0.00,Wunderground v.1.15,2013-10-07 11:35:00,
2013-10-07 01:40:00,76.0,68.6,30.03,NE,45,5.0,-999.0,78,0.00,,,0.00,Wunderground v.1.15,2013-10-07 11:40:00,
2013-10-07 01:45:00,75.7,67.2,30.02,NE,45,6.0,-999.0,75,0.00,,,0.00,Wunderground v.1.15,2013-10-07 11:45:00,
2013-10-07 01:50:00,75.7,67.2,30.02,NE,45,6.0,-999.0,75,0.00,,,0.00,Wunderground v.1.15,2013-10-07 11:50:00,
2013-10-07 01:55:00,75.7,67.2,30.02,NE,45,6.0,-999.0,75,0.00,,,0.00,Wunderground v.1.15,2013-10-07 11:55:00,
2013-10-07 02:00:00,75.7,67.2,30.02,NE,45,6.0,-999.0,75,0.00,,,0.00,Wunderground v.1.15,2013-10-07 12:00:00,
2013-10-07 02:05:00,75.7,67.2,30.02,NE,45,6.0,-999.0,75,0.00,,,0.00,Wunderground v.1.15,2013-10-07 12:05:00,
2013-10-07 02:10:00,75.7,67.2,30.02,NE,45,6.0,-999.0,75,0.00,,,0.00,Wunderground v.1.15,2013-10-07 12:10:00,
2013-10-07 02:15:00,75.8,68.8,30.02,NE,45,5.0,-999.0,79,0.00,,,0.00,Wunderground v.1.15,2013-10-07 12:15:00,
2013-10-07 02:20:00,75.8,68.8,30.02,NE,45,5.0,-999.0,79,0.00,,,0.00,Wunderground v.1.15,2013-10-07 12:20:00,
2013-10-07 02:25:00,75.8,68.8,30.02,NE,45,5.0,-999.0,79,0.00,,,0.00,Wunderground v.1.15,2013-10-07 12:25:00,
2013-10-07 02:30:00,75.8,68.8,30.02,NE,45,5.0,-999.0,79,0.00,,,0.00,Wunderground v.1.15,2013-10-07 12:30:00,
2013-10-07 02:35:00,75.8,68.8,30.02,NE,45,5.0,-999.0,79,0.00,,,0.00,Wunderground v.1.15,2013-10-07 12:35:00,
2013-10-07 02:40:00,75.8,68.8,30.02,NE,45,5.0,-999.0,79,0.00,,,0.00,Wunderground v.1.15,2013-10-07 12:40:00,
2013-10-07 02:45:00,75.5,67.8,30.02,NE,45,5.0,-999.0,77,0.00,,,0.00,Wunderground v.1.15,2013-10-07 12:45:00,
2013-10-07 02:50:00,75.5,67.8,30.02,NE,45,5.0,-999.0,77,0.00,,,0.00,Wunderground v.1.15,2013-10-07 12:50:00,
2013-10-07 02:55:00,75.5,67.8,30.02,NE,45,5.0,-999.0,77,0.00,,,0.00,Wunderground v.1.15,2013-10-07 12:55:00,
2013-10-07 03:00:00,75.5,67.8,30.02,NE,45,5.0,-999.0,77,0.00,,,0.00,Wunderground v.1.15,2013-10-07 13:00:00,
2013-10-07 03:05:00,75.5,67.8,30.02,NE,45,5.0,-999.0,77,0.00,,,0.00,Wunderground v.1.15,2013-10-07 13:05:00,
2013-10-07 03:10:00,75.5,67.8,30.02,NE,45,5.0,-999.0,77,0.00,,,0.00,Wunderground v.1.15,2013-10-07 13:10:00,
2013-10-07 03:15:00,75.3,66.0,30.03,NE,45,4.0,-999.0,73,0.00,,,0.00,Wunderground v.1.15,2013-10-07 13:15:00,
2013-10-07 03:20:00,75.3,66.0,30.03,NE,45,4.0,-999.0,73,0.00,,,0.00,Wunderground v.1.15,2013-10-07 13:20:00,
2013-10-07 03:25:00,75.3,66.0,30.03,NE,45,4.0,-999.0,73,0.00,,,0.00,Wunderground v.1.15,2013-10-07 13:25:00,
2013-10-07 03:30:00,75.3,66.0,30.03,NE,45,4.0,-999.0,73,0.00,,,0.00,Wunderground v.1.15,2013-10-07 13:30:00,
2013-10-07 03:35:00,75.3,66.0,30.03,NE,45,4.0,-999.0,73,0.00,,,0.00,Wunderground v.1.15,2013-10-07 13:35:00,
2013-10-07 03:40:00,75.3,66.0,30.03,NE,45,4.0,-999.0,73,0.00,,,0.00,Wunderground v.1.15,2013-10-07 13:40:00,
2013-10-07 03:45:00,75.7,68.4,30.03,ENE,68,4.0,-999.0,78,0.00,,,0.00,Wunderground v.1.15,2013-10-07 13:45:00,
2013-10-07 03:50:00,75.7,68.4,30.03,ENE,68,4.0,-999.0,78,0.00,,,0.00,Wunderground v.1.15,2013-10-07 13:50:00,
2013-10-07 03:55:00,75.7,68.4,30.03,ENE,68,4.0,-999.0,78,0.00,,,0.00,Wunderground v.1.15,2013-10-07 13:55:00,
2013-10-07 04:00:00,75.7,68.4,30.03,ENE,68,4.0,-999.0,78,0.00,,,0.00,Wunderground v.1.15,2013-10-07 14:00:00,
2013-10-07 04:05:00,75.7,68.4,30.03,ENE,68,4.0,-999.0,78,0.00,,,0.00,Wunderground v.1.15,2013-10-07 14:05:00,
2013-10-07 04:10:00,75.7,68.4,30.03,ENE,68,4.0,-999.0,78,0.00,,,0.00,Wunderground v.1.15,2013-10-07 14:10:00,
2013-10-07 04:15:00,75.1,66.6,30.03,NE,45,3.0,-999.0,75,0.00,,,0.00,Wunderground v.1.15,2013-10-07 14:15:00,
2013-10-07 04:20:00,75.1,66.6,30.03,NE,45,3.0,-999.0,75,0.00,,,0.00,Wunderground v.1.15,2013-10-07 14:20:00,
2013-10-07 04:25:00,75.1,66.6,30.03,NE,45,3.0,-999.0,75,0.00,,,0.00,Wunderground v.1.15,2013-10-07 14:25:00,
2013-10-07 04:30:00,75.1,66.6,30.03,NE,45,3.0,-999.0,75,0.00,,,0.00,Wunderground v.1.15,2013-10-07 14:30:00,
2013-10-07 04:35:00,75.1,66.6,30.03,NE,45,3.0,-999.0,75,0.00,,,0.00,Wunderground v.1.15,2013-10-07 14:35:00,
2013-10-07 04:40:00,75.1,66.6,30.03,NE,45,3.0,-999.0,75,0.00,,,0.00,Wunderground v.1.15,2013-10-07 14:40:00,
2013-10-07 04:45:00,74.9,67.6,30.03,ENE,68,2.0,-999.0,78,0.00,,,0.00,Wunderground v.1.15,2013-10-07 14:45:00,
2013-10-07 04:50:00,74.9,67.6,30.03,ENE,68,2.0,-999.0,78,0.00,,,0.00,Wunderground v.1.15,2013-10-07 14:50:00,
2013-10-07 04:55:00,74.9,67.6,30.03,ENE,68,2.0,-999.0,78,0.00,,,0.00,Wunderground v.1.15,2013-10-07 14:55:00,
2013-10-07 05:00:00,74.9,67.6,30.03,ENE,68,2.0,-999.0,78,0.00,,,0.00,Wunderground v.1.15,2013-10-07 15:00:00,
2013-10-07 05:05:00,74.9,67.6,30.03,ENE,68,2.0,-999.0,78,0.00,,,0.00,Wunderground v.1.15,2013-10-07 15:05:00,
2013-10-07 05:10:00,74.9,67.6,30.03,ENE,68,2.0,-999.0,78,0.00,,,0.00,Wunderground v.1.15,2013-10-07 15:10:00,
2013-10-07 05:15:00,74.6,68.4,30.04,ENE,68,2.0,-999.0,81,0.00,,,0.00,Wunderground v.1.15,2013-10-07 15:15:00,
2013-10-07 05:20:00,74.6,68.4,30.04,ENE,68,2.0,-999.0,81,0.00,,,0.00,Wunderground v.1.15,2013-10-07 15:20:00,
2013-10-07 05:25:00,74.6,68.4,30.04,ENE,68,2.0,-999.0,81,0.00,,,0.00,Wunderground v.1.15,2013-10-07 15:25:00,
2013-10-07 05:30:00,74.6,68.4,30.04,ENE,68,2.0,-999.0,81,0.00,,,0.00,Wunderground v.1.15,2013-10-07 15:30:00,
2013-10-07 05:35:00,74.6,68.4,30.04,ENE,68,2.0,-999.0,81,0.00,,,0.00,Wunderground v.1.15,2013-10-07 15:35:00,
2013-10-07 05:40:00,74.6,68.4,30.04,ENE,68,2.0,-999.0,81,0.00,,,0.00,Wunderground v.1.15,2013-10-07 15:40:00,
2013-10-07 05:45:00,74.5,66.8,30.04,ENE,68,2.0,-999.0,77,0.00,,,0.00,Wunderground v.1.15,2013-10-07 15:45:00,
2013-10-07 05:50:00,74.5,66.8,30.04,ENE,68,2.0,-999.0,77,0.00,,,0.00,Wunderground v.1.15,2013-10-07 15:50:00,
2013-10-07 05:55:00,74.5,66.8,30.04,ENE,68,2.0,-999.0,77,0.00,,,0.00,Wunderground v.1.15,2013-10-07 15:55:00,
2013-10-07 06:00:00,74.5,66.8,30.04,ENE,68,2.0,-999.0,77,0.00,,,0.00,Wunderground v.1.15,2013-10-07 16:00:00,
2013-10-07 06:05:00,74.5,66.8,30.04,ENE,68,2.0,-999.0,77,0.00,,,0.00,Wunderground v.1.15,2013-10-07 16:05:00,
2013-10-07 06:10:00,74.5,66.8,30.04,ENE,68,2.0,-999.0,77,0.00,,,0.00,Wunderground v.1.15,2013-10-07 16:10:00,
2013-10-07 06:15:00,74.3,66.6,30.04,ENE,68,1.0,-999.0,77,0.00,,,0.00,Wunderground v.1.15,2013-10-07 16:15:00,
2013-10-07 06:20:00,74.3,66.6,30.04,ENE,68,1.0,-999.0,77,0.00,,,0.00,Wunderground v.1.15,2013-10-07 16:20:00,
2013-10-07 06:25:00,74.3,66.6,30.04,ENE,68,1.0,-999.0,77,0.00,,,0.00,Wunderground v.1.15,2013-10-07 16:25:00,
2013-10-07 06:30:00,74.3,66.6,30.04,ENE,68,1.0,-999.0,77,0.00,,,0.00,Wunderground v.1.15,2013-10-07 16:30:00,
2013-10-07 06:35:00,74.3,66.6,30.04,ENE,68,1.0,-999.0,77,0.00,,,0.00,Wunderground v.1.15,2013-10-07 16:35:00,
2013-10-07 06:40:00,74.3,66.6,30.04,ENE,68,1.0,-999.0,77,0.00,,,0.00,Wunderground v.1.15,2013-10-07 16:40:00,
2013-10-07 06:45:00,74.6,64.6,30.05,ENE,68,1.0,-999.0,71,0.00,,,0.00,Wunderground v.1.15,2013-10-07 16:45:00,
2013-10-07 06:50:00,74.6,64.6,30.05,ENE,68,1.0,-999.0,71,0.00,,,0.00,Wunderground v.1.15,2013-10-07 16:50:00,
2013-10-07 06:55:00,74.6,64.6,30.05,ENE,68,1.0,-999.0,71,0.00,,,0.00,Wunderground v.1.15,2013-10-07 16:55:00,
2013-10-07 07:00:00,74.6,64.6,30.05,ENE,68,1.0,-999.0,71,0.00,,,0.00,Wunderground v.1.15,2013-10-07 17:00:00,
2013-10-07 07:05:00,74.6,64.6,30.05,ENE,68,1.0,-999.0,71,0.00,,,0.00,Wunderground v.1.15,2013-10-07 17:05:00,
2013-10-07 07:10:00,74.6,64.6,30.05,ENE,68,1.0,-999.0,71,0.00,,,0.00,Wunderground v.1.15,2013-10-07 17:10:00,
2013-10-07 07:15:00,76.7,65.8,30.05,ENE,68,3.0,-999.0,69,0.00,,,0.00,Wunderground v.1.15,2013-10-07 17:15:00,
2013-10-07 07:20:00,76.7,65.8,30.05,ENE,68,3.0,-999.0,69,0.00,,,0.00,Wunderground v.1.15,2013-10-07 17:20:00,
2013-10-07 07:25:00,76.7,65.8,30.05,ENE,68,3.0,-999.0,69,0.00,,,0.00,Wunderground v.1.15,2013-10-07 17:25:00,
2013-10-07 07:30:00,76.7,65.8,30.05,ENE,68,3.0,-999.0,69,0.00,,,0.00,Wunderground v.1.15,2013-10-07 17:30:00,
2013-10-07 07:35:00,76.7,65.8,30.05,ENE,68,3.0,-999.0,69,0.00,,,0.00,Wunderground v.1.15,2013-10-07 17:35:00,
2013-10-07 07:40:00,76.7,65.8,30.05,ENE,68,3.0,-999.0,69,0.00,,,0.00,Wunderground v.1.15,2013-10-07 17:40:00,
2013-10-07 07:45:00,78.0,67.0,30.05,NE,45,4.0,-999.0,69,0.00,,,0.00,Wunderground v.1.15,2013-10-07 17:45:00,
2013-10-07 07:50:00,78.0,67.0,30.05,NE,45,4.0,-999.0,69,0.00,,,0.00,Wunderground v.1.15,2013-10-07 17:50:00,
2013-10-07 07:55:00,78.0,67.0,30.05,NE,45,4.0,-999.0,69,0.00,,,0.00,Wunderground v.1.15,2013-10-07 17:55:00,
2013-10-07 08:00:00,78.0,67.0,30.05,NE,45,4.0,-999.0,69,0.00,,,0.00,Wunderground v.1.15,2013-10-07 18:00:00,
2013-10-07 08:05:00,78.0,67.0,30.05,NE,45,4.0,-999.0,69,0.00,,,0.00,Wunderground v.1.15,2013-10-07 18:05:00,
2013-10-07 08:10:00,78.0,67.0,30.05,NE,45,4.0,-999.0,69,0.00,,,0.00,Wunderground v.1.15,2013-10-07 18:10:00,
2013-10-07 08:15:00,78.3,66.9,30.06,East,90,4.0,-999.0,68,0.00,,,0.00,Wunderground v.1.15,2013-10-07 18:15:00,
2013-10-07 08:20:00,78.3,66.9,30.06,East,90,4.0,-999.0,68,0.00,,,0.00,Wunderground v.1.15,2013-10-07 18:20:00,
2013-10-07 08:25:00,78.3,66.9,30.06,East,90,4.0,-999.0,68,0.00,,,0.00,Wunderground v.1.15,2013-10-07 18:25:00,
2013-10-07 08:30:00,78.3,66.9,30.06,East,90,4.0,-999.0,68,0.00,,,0.00,Wunderground v.1.15,2013-10-07 18:30:00,
2013-10-07 08:35:00,78.3,66.9,30.06,East,90,4.0,-999.0,68,0.00,,,0.00,Wunderground v.1.15,2013-10-07 18:35:00,
2013-10-07 08:40:00,78.3,66.9,30.06,East,90,4.0,-999.0,68,0.00,,,0.00,Wunderground v.1.15,2013-10-07 18:40:00,
2013-10-07 08:45:00,79.7,66.9,30.08,East,90,4.0,-999.0,65,0.00,,,0.00,Wunderground v.1.15,2013-10-07 18:45:00,
2013-10-07 08:50:00,79.7,66.9,30.08,East,90,4.0,-999.0,65,0.00,,,0.00,Wunderground v.1.15,2013-10-07 18:50:00,
2013-10-07 08:55:00,79.7,66.9,30.08,East,90,4.0,-999.0,65,0.00,,,0.00,Wunderground v.1.15,2013-10-07 18:55:00,
2013-10-07 09:00:00,79.7,66.9,30.08,East,90,4.0,-999.0,65,0.00,,,0.00,Wunderground v.1.15,2013-10-07 19:00:00,
2013-10-07 09:05:00,79.7,66.9,30.08,East,90,4.0,-999.0,65,0.00,,,0.00,Wunderground v.1.15,2013-10-07 19:05:00,
2013-10-07 09:10:00,79.7,66.9,30.08,East,90,4.0,-999.0,65,0.00,,,0.00,Wunderground v.1.15,2013-10-07 19:10:00,
2013-10-07 09:15:00,82.9,68.5,30.08,East,90,4.0,-999.0,62,0.00,,,0.00,Wunderground v.1.15,2013-10-07 19:15:00,
2013-10-07 09:20:00,82.9,68.5,30.08,East,90,4.0,-999.0,62,0.00,,,0.00,Wunderground v.1.15,2013-10-07 19:20:00,
2013-10-07 09:25:00,82.9,68.5,30.08,East,90,4.0,-999.0,62,0.00,,,0.00,Wunderground v.1.15,2013-10-07 19:25:00,
2013-10-07 09:30:00,82.9,68.5,30.08,East,90,4.0,-999.0,62,0.00,,,0.00,Wunderground v.1.15,2013-10-07 19:30:00,
2013-10-07 09:35:00,82.9,68.5,30.08,East,90,4.0,-999.0,62,0.00,,,0.00,Wunderground v.1.15,2013-10-07 19:35:00,
2013-10-07 09:40:00,82.9,68.5,30.08,East,90,4.0,-999.0,62,0.00,,,0.00,Wunderground v.1.15,2013-10-07 19:40:00,
2013-10-07 09:45:00,84.4,71.3,30.09,ENE,68,4.0,-999.0,65,0.00,,,0.00,Wunderground v.1.15,2013-10-07 19:45:00,
2013-10-07 09:50:00,84.4,71.3,30.09,ENE,68,4.0,-999.0,65,0.00,,,0.00,Wunderground v.1.15,2013-10-07 19:50:00,
2013-10-07 09:55:00,84.4,71.3,30.09,ENE,68,4.0,-999.0,65,0.00,,,0.00,Wunderground v.1.15,2013-10-07 19:55:00,
2013-10-07 10:00:00,84.4,71.3,30.09,ENE,68,4.0,-999.0,65,0.00,,,0.00,Wunderground v.1.15,2013-10-07 20:00:00,
2013-10-07 10:05:00,84.4,71.3,30.09,ENE,68,4.0,-999.0,65,0.00,,,0.00,Wunderground v.1.15,2013-10-07 20:05:00,
2013-10-07 10:10:00,84.4,71.3,30.09,ENE,68,4.0,-999.0,65,0.00,,,0.00,Wunderground v.1.15,2013-10-07 20:10:00,
2013-10-07 10:15:00,82.4,69.4,30.08,East,90,5.0,-999.0,65,0.00,,,0.00,Wunderground v.1.15,2013-10-07 20:15:00,
2013-10-07 10:20:00,82.4,69.4,30.08,East,90,5.0,-999.0,65,0.00,,,0.00,Wunderground v.1.15,2013-10-07 20:20:00,
2013-10-07 10:25:00,82.4,69.4,30.08,East,90,5.0,-999.0,65,0.00,,,0.00,Wunderground v.1.15,2013-10-07 20:25:00,
2013-10-07 10:30:00,82.4,69.4,30.08,East,90,5.0,-999.0,65,0.00,,,0.00,Wunderground v.1.15,2013-10-07 20:30:00,
2013-10-07 10:35:00,82.4,69.4,30.08,East,90,5.0,-999.0,65,0.00,,,0.00,Wunderground v.1.15,2013-10-07 20:35:00,
2013-10-07 10:40:00,82.4,69.4,30.08,East,90,5.0,-999.0,65,0.00,,,0.00,Wunderground v.1.15,2013-10-07 20:40:00,
2013-10-07 10:45:00,82.7,69.3,30.08,ENE,68,6.0,-999.0,64,0.00,,,0.00,Wunderground v.1.15,2013-10-07 20:45:00,
2013-10-07 10:50:00,82.7,69.3,30.08,ENE,68,6.0,-999.0,64,0.00,,,0.00,Wunderground v.1.15,2013-10-07 20:50:00,
2013-10-07 10:55:00,82.7,69.3,30.08,ENE,68,6.0,-999.0,64,0.00,,,0.00,Wunderground v.1.15,2013-10-07 20:55:00,
2013-10-07 11:00:00,82.7,69.3,30.08,ENE,68,6.0,-999.0,64,0.00,,,0.00,Wunderground v.1.15,2013-10-07 21:00:00,
2013-10-07 11:05:00,82.7,69.3,30.08,ENE,68,6.0,-999.0,64,0.00,,,0.00,Wunderground v.1.15,2013-10-07 21:05:00,
2013-10-07 11:10:00,82.7,69.3,30.08,ENE,68,6.0,-999.0,64,0.00,,,0.00,Wunderground v.1.15,2013-10-07 21:10:00,
2013-10-07 11:15:00,83.5,68.2,30.08,NE,45,5.0,-999.0,60,0.00,,,0.00,Wunderground v.1.15,2013-10-07 21:15:00,
2013-10-07 11:20:00,83.5,68.2,30.08,NE,45,5.0,-999.0,60,0.00,,,0.00,Wunderground v.1.15,2013-10-07 21:20:00,
2013-10-07 11:25:00,83.5,68.2,30.08,NE,45,5.0,-999.0,60,0.00,,,0.00,Wunderground v.1.15,2013-10-07 21:25:00,
2013-10-07 11:30:00,83.5,68.2,30.08,NE,45,5.0,-999.0,60,0.00,,,0.00,Wunderground v.1.15,2013-10-07 21:30:00,
2013-10-07 11:35:00,83.5,68.2,30.08,NE,45,5.0,-999.0,60,0.00,,,0.00,Wunderground v.1.15,2013-10-07 21:35:00,
2013-10-07 11:40:00,83.5,68.2,30.08,NE,45,5.0,-999.0,60,0.00,,,0.00,Wunderground v.1.15,2013-10-07 21:40:00,
2013-10-07 11:45:00,84.2,67.8,30.08,NE,45,6.0,-999.0,58,0.00,,,0.00,Wunderground v.1.15,2013-10-07 21:45:00,
2013-10-07 11:50:00,84.2,67.8,30.08,NE,45,6.0,-999.0,58,0.00,,,0.00,Wunderground v.1.15,2013-10-07 21:50:00,
2013-10-07 11:55:00,84.2,67.8,30.08,NE,45,6.0,-999.0,58,0.00,,,0.00,Wunderground v.1.15,2013-10-07 21:55:00,
2013-10-07 12:00:00,84.2,67.8,30.08,NE,45,6.0,-999.0,58,0.00,,,0.00,Wunderground v.1.15,2013-10-07 22:00:00,
2013-10-07 12:05:00,84.2,67.8,30.08,NE,45,6.0,-999.0,58,0.00,,,0.00,Wunderground v.1.15,2013-10-07 22:05:00,
2013-10-07 12:10:00,84.2,67.8,30.08,NE,45,6.0,-999.0,58,0.00,,,0.00,Wunderground v.1.15,2013-10-07 22:10:00,
2013-10-07 12:15:00,84.8,68.9,30.06,NE,45,7.0,-999.0,59,0.00,,,0.00,Wunderground v.1.15,2013-10-07 22:15:00,
2013-10-07 12:20:00,84.8,68.9,30.06,NE,45,7.0,-999.0,59,0.00,,,0.00,Wunderground v.1.15,2013-10-07 22:20:00,
2013-10-07 12:25:00,84.8,68.9,30.06,NE,45,7.0,-999.0,59,0.00,,,0.00,Wunderground v.1.15,2013-10-07 22:25:00,
2013-10-07 12:30:00,84.8,68.9,30.06,NE,45,7.0,-999.0,59,0.00,,,0.00,Wunderground v.1.15,2013-10-07 22:30:00,
2013-10-07 12:35:00,84.8,68.9,30.06,NE,45,7.0,-999.0,59,0.00,,,0.00,Wunderground v.1.15,2013-10-07 22:35:00,
2013-10-07 12:40:00,84.8,68.9,30.06,NE,45,7.0,-999.0,59,0.00,,,0.00,Wunderground v.1.15,2013-10-07 22:40:00,
2013-10-07 12:45:00,86.4,69.4,30.06,NE,45,6.0,-999.0,57,0.00,,,0.00,Wunderground v.1.15,2013-10-07 22:45:00,
2013-10-07 12:50:00,86.4,69.4,30.06,NE,45,6.0,-999.0,57,0.00,,,0.00,Wunderground v.1.15,2013-10-07 22:50:00,
2013-10-07 12:55:00,86.4,69.4,30.06,NE,45,6.0,-999.0,57,0.00,,,0.00,Wunderground v.1.15,2013-10-07 22:55:00,
2013-10-07 13:00:00,86.4,69.4,30.06,NE,45,6.0,-999.0,57,0.00,,,0.00,Wunderground v.1.15,2013-10-07 23:00:00,
2013-10-07 13:05:00,86.4,69.4,30.06,NE,45,6.0,-999.0,57,0.00,,,0.00,Wunderground v.1.15,2013-10-07 23:05:00,
2013-10-07 13:10:00,86.4,69.4,30.06,NE,45,6.0,-999.0,57,0.00,,,0.00,Wunderground v.1.15,2013-10-07 23:10:00,
2013-10-07 13:15:00,86.2,69.7,30.04,NE,45,5.0,-999.0,58,0.00,,,0.00,Wunderground v.1.15,2013-10-07 23:15:00,
2013-10-07 13:20:00,86.2,69.7,30.04,NE,45,5.0,-999.0,58,0.00,,,0.00,Wunderground v.1.15,2013-10-07 23:20:00,
2013-10-07 13:25:00,86.2,69.7,30.04,NE,45,5.0,-999.0,58,0.00,,,0.00,Wunderground v.1.15,2013-10-07 23:25:00,
2013-10-07 13:30:00,86.2,69.7,30.04,NE,45,5.0,-999.0,58,0.00,,,0.00,Wunderground v.1.15,2013-10-07 23:30:00,
2013-10-07 13:35:00,86.2,69.7,30.04,NE,45,5.0,-999.0,58,0.00,,,0.00,Wunderground v.1.15,2013-10-07 23:35:00,
2013-10-07 13:40:00,86.2,69.7,30.04,NE,45,5.0,-999.0,58,0.00,,,0.00,Wunderground v.1.15,2013-10-07 23:40:00,
2013-10-07 13:45:00,87.1,69.0,30.04,NE,45,7.0,-999.0,55,0.00,,,0.00,Wunderground v.1.15,2013-10-07 23:45:00,
2013-10-07 13:50:00,87.1,69.0,30.04,NE,45,7.0,-999.0,55,0.00,,,0.00,Wunderground v.1.15,2013-10-07 23:50:00,
2013-10-07 13:55:00,87.1,69.0,30.04,NE,45,7.0,-999.0,55,0.00,,,0.00,Wunderground v.1.15,2013-10-07 23:55:00,
2013-10-07 14:00:00,87.1,69.0,30.04,NE,45,7.0,-999.0,55,0.00,,,0.00,Wunderground v.1.15,2013-10-08 00:00:00,
2013-10-07 14:05:00,87.1,69.0,30.04,NE,45,7.0,-999.0,55,0.00,,,0.00,Wunderground v.1.15,2013-10-08 00:05:00,
2013-10-07 14:10:00,87.1,69.0,30.04,NE,45,7.0,-999.0,55,0.00,,,0.00,Wunderground v.1.15,2013-10-08 00:10:00,
2013-10-07 14:15:00,87.0,68.3,30.03,NE,45,9.0,-999.0,54,0.00,,,0.00,Wunderground v.1.15,2013-10-08 00:15:00,
2013-10-07 14:20:00,87.0,68.3,30.03,NE,45,9.0,-999.0,54,0.00,,,0.00,Wunderground v.1.15,2013-10-08 00:20:00,
2013-10-07 14:25:00,87.0,68.3,30.03,NE,45,9.0,-999.0,54,0.00,,,0.00,Wunderground v.1.15,2013-10-08 00:25:00,
2013-10-07 14:30:00,87.0,68.3,30.03,NE,45,9.0,-999.0,54,0.00,,,0.00,Wunderground v.1.15,2013-10-08 00:30:00,
2013-10-07 14:35:00,87.0,68.3,30.03,NE,45,9.0,-999.0,54,0.00,,,0.00,Wunderground v.1.15,2013-10-08 00:35:00,
2013-10-07 14:40:00,87.0,68.3,30.03,NE,45,9.0,-999.0,54,0.00,,,0.00,Wunderground v.1.15,2013-10-08 00:40:00,
2013-10-07 14:45:00,87.7,68.4,30.02,NE,45,8.0,-999.0,53,0.00,,,0.00,Wunderground v.1.15,2013-10-08 00:45:00,
2013-10-07 14:50:00,87.7,68.4,30.02,NE,45,8.0,-999.0,53,0.00,,,0.00,Wunderground v.1.15,2013-10-08 00:50:00,
2013-10-07 14:55:00,87.7,68.4,30.02,NE,45,8.0,-999.0,53,0.00,,,0.00,Wunderground v.1.15,2013-10-08 00:55:00,
2013-10-07 15:00:00,87.7,68.4,30.02,NE,45,8.0,-999.0,53,0.00,,,0.00,Wunderground v.1.15,2013-10-08 01:00:00,
2013-10-07 15:05:00,87.7,68.4,30.02,NE,45,8.0,-999.0,53,0.00,,,0.00,Wunderground v.1.15,2013-10-08 01:05:00,
2013-10-07 15:10:00,87.7,68.4,30.02,NE,45,8.0,-999.0,53,0.00,,,0.00,Wunderground v.1.15,2013-10-08 01:10:00,
2013-10-07 15:15:00,86.7,68.1,30.02,ENE,68,7.0,-999.0,54,0.00,,,0.00,Wunderground v.1.15,2013-10-08 01:15:00,
2013-10-07 15:20:00,86.7,68.1,30.02,ENE,68,7.0,-999.0,54,0.00,,,0.00,Wunderground v.1.15,2013-10-08 01:20:00,
2013-10-07 15:25:00,86.7,68.1,30.02,ENE,68,7.0,-999.0,54,0.00,,,0.00,Wunderground v.1.15,2013-10-08 01:25:00,
2013-10-07 15:30:00,86.7,68.1,30.02,ENE,68,7.0,-999.0,54,0.00,,,0.00,Wunderground v.1.15,2013-10-08 01:30:00,
2013-10-07 15:35:00,86.7,68.1,30.02,ENE,68,7.0,-999.0,54,0.00,,,0.00,Wunderground v.1.15,2013-10-08 01:35:00,
2013-10-07 15:40:00,86.7,68.1,30.02,ENE,68,7.0,-999.0,54,0.00,,,0.00,Wunderground v.1.15,2013-10-08 01:40:00,
2013-10-07 15:45:00,85.0,66.0,30.02,ENE,68,7.0,-999.0,53,0.00,,,0.00,Wunderground v.1.15,2013-10-08 01:45:00,
2013-10-07 15:50:00,85.0,66.0,30.02,ENE,68,7.0,-999.0,53,0.00,,,0.00,Wunderground v.1.15,2013-10-08 01:50:00,
2013-10-07 15:55:00,85.0,66.0,30.02,ENE,68,7.0,-999.0,53,0.00,,,0.00,Wunderground v.1.15,2013-10-08 01:55:00,
2013-10-07 16:00:00,85.0,66.0,30.02,ENE,68,7.0,-999.0,53,0.00,,,0.00,Wunderground v.1.15,2013-10-08 02:00:00,
2013-10-07 16:05:00,85.0,66.0,30.02,ENE,68,7.0,-999.0,53,0.00,,,0.00,Wunderground v.1.15,2013-10-08 02:05:00,
2013-10-07 16:10:00,85.0,66.0,30.02,ENE,68,7.0,-999.0,53,0.00,,,0.00,Wunderground v.1.15,2013-10-08 02:10:00,
2013-10-07 16:15:00,84.7,67.3,30.03,NE,45,6.0,-999.0,56,0.00,,,0.00,Wunderground v.1.15,2013-10-08 02:15:00,
2013-10-07 16:20:00,84.7,67.3,30.03,NE,45,6.0,-999.0,56,0.00,,,0.00,Wunderground v.1.15,2013-10-08 02:20:00,
2013-10-07 16:25:00,84.7,67.3,30.03,NE,45,6.0,-999.0,56,0.00,,,0.00,Wunderground v.1.15,2013-10-08 02:25:00,
2013-10-07 16:30:00,84.7,67.3,30.03,NE,45,6.0,-999.0,56,0.00,,,0.00,Wunderground v.1.15,2013-10-08 02:30:00,
2013-10-07 16:35:00,84.7,67.3,30.03,NE,45,6.0,-999.0,56,0.00,,,0.00,Wunderground v.1.15,2013-10-08 02:35:00,
2013-10-07 16:40:00,84.7,67.3,30.03,NE,45,6.0,-999.0,56,0.00,,,0.00,Wunderground v.1.15,2013-10-08 02:40:00,
2013-10-07 16:45:00,85.2,69.3,30.04,NE,45,6.0,-999.0,59,0.00,,,0.00,Wunderground v.1.15,2013-10-08 02:45:00,
2013-10-07 16:50:00,85.2,69.3,30.04,NE,45,6.0,-999.0,59,0.00,,,0.00,Wunderground v.1.15,2013-10-08 02:50:00,
2013-10-07 16:55:00,85.2,69.3,30.04,NE,45,6.0,-999.0,59,0.00,,,0.00,Wunderground v.1.15,2013-10-08 02:55:00,
2013-10-07 17:00:00,85.2,69.3,30.04,NE,45,6.0,-999.0,59,0.00,,,0.00,Wunderground v.1.15,2013-10-08 03:00:00,
2013-10-07 17:05:00,85.2,69.3,30.04,NE,45,6.0,-999.0,59,0.00,,,0.00,Wunderground v.1.15,2013-10-08 03:05:00,
2013-10-07 17:10:00,85.2,69.3,30.04,NE,45,6.0,-999.0,59,0.00,,,0.00,Wunderground v.1.15,2013-10-08 03:10:00,
2013-10-07 17:15:00,83.6,69.7,30.05,NE,45,6.0,-999.0,63,0.00,,,0.00,Wunderground v.1.15,2013-10-08 03:15:00,
2013-10-07 17:20:00,83.6,69.7,30.05,NE,45,6.0,-999.0,63,0.00,,,0.00,Wunderground v.1.15,2013-10-08 03:20:00,
2013-10-07 17:25:00,83.6,69.7,30.05,NE,45,6.0,-999.0,63,0.00,,,0.00,Wunderground v.1.15,2013-10-08 03:25:00,
2013-10-07 17:30:00,83.6,69.7,30.05,NE,45,6.0,-999.0,63,0.00,,,0.00,Wunderground v.1.15,2013-10-08 03:30:00,
2013-10-07 17:35:00,83.6,69.7,30.05,NE,45,6.0,-999.0,63,0.00,,,0.00,Wunderground v.1.15,2013-10-08 03:35:00,
2013-10-07 17:40:00,83.6,69.7,30.05,NE,45,6.0,-999.0,63,0.00,,,0.00,Wunderground v.1.15,2013-10-08 03:40:00,
2013-10-07 17:45:00,81.3,68.9,30.05,NE,45,7.0,-999.0,66,0.00,,,0.00,Wunderground v.1.15,2013-10-08 03:45:00,
2013-10-07 17:50:00,81.3,68.9,30.05,NE,45,7.0,-999.0,66,0.00,,,0.00,Wunderground v.1.15,2013-10-08 03:50:00,
2013-10-07 17:55:00,81.3,68.9,30.05,NE,45,7.0,-999.0,66,0.00,,,0.00,Wunderground v.1.15,2013-10-08 03:55:00,
2013-10-07 18:00:00,81.3,68.9,30.05,NE,45,7.0,-999.0,66,0.00,,,0.00,Wunderground v.1.15,2013-10-08 04:00:00,
2013-10-07 18:05:00,81.3,68.9,30.05,NE,45,7.0,-999.0,66,0.00,,,0.00,Wunderground v.1.15,2013-10-08 04:05:00,
2013-10-07 18:10:00,81.3,68.9,30.05,NE,45,7.0,-999.0,66,0.00,,,0.00,Wunderground v.1.15,2013-10-08 04:10:00,
2013-10-07 18:15:00,79.3,68.2,30.07,NE,45,3.0,-999.0,69,0.00,,,0.00,Wunderground v.1.15,2013-10-08 04:15:00,
2013-10-07 18:20:00,79.3,68.2,30.07,NE,45,3.0,-999.0,69,0.00,,,0.00,Wunderground v.1.15,2013-10-08 04:20:00,
2013-10-07 18:25:00,79.3,68.2,30.07,NE,45,3.0,-999.0,69,0.00,,,0.00,Wunderground v.1.15,2013-10-08 04:25:00,
2013-10-07 18:30:00,79.3,68.2,30.07,NE,45,3.0,-999.0,69,0.00,,,0.00,Wunderground v.1.15,2013-10-08 04:30:00,
2013-10-07 18:35:00,79.3,68.2,30.07,NE,45,3.0,-999.0,69,0.00,,,0.00,Wunderground v.1.15,2013-10-08 04:35:00,
2013-10-07 18:40:00,79.3,68.2,30.07,NE,45,3.0,-999.0,69,0.00,,,0.00,Wunderground v.1.15,2013-10-08 04:40:00,
2013-10-07 18:45:00,78.4,67.4,30.08,ENE,68,4.0,-999.0,69,0.00,,,0.00,Wunderground v.1.15,2013-10-08 04:45:00,
2013-10-07 18:50:00,78.4,67.4,30.08,ENE,68,4.0,-999.0,69,0.00,,,0.00,Wunderground v.1.15,2013-10-08 04:50:00,
2013-10-07 18:55:00,78.4,67.4,30.08,ENE,68,4.0,-999.0,69,0.00,,,0.00,Wunderground v.1.15,2013-10-08 04:55:00,
2013-10-07 19:00:00,78.4,67.4,30.08,ENE,68,4.0,-999.0,69,0.00,,,0.00,Wunderground v.1.15,2013-10-08 05:00:00,
2013-10-07 19:05:00,78.4,67.4,30.08,ENE,68,4.0,-999.0,69,0.00,,,0.00,Wunderground v.1.15,2013-10-08 05:05:00,
2013-10-07 19:10:00,78.4,67.4,30.08,ENE,68,4.0,-999.0,69,0.00,,,0.00,Wunderground v.1.15,2013-10-08 05:10:00,
2013-10-07 19:15:00,78.0,67.8,30.09,NE,45,3.0,-999.0,71,0.00,,,0.00,Wunderground v.1.15,2013-10-08 05:15:00,
2013-10-07 19:20:00,78.0,67.8,30.09,NE,45,3.0,-999.0,71,0.00,,,0.00,Wunderground v.1.15,2013-10-08 05:20:00,
2013-10-07 19:25:00,78.0,67.8,30.09,NE,45,3.0,-999.0,71,0.00,,,0.00,Wunderground v.1.15,2013-10-08 05:25:00,
2013-10-07 19:30:00,78.0,67.8,30.09,NE,45,3.0,-999.0,71,0.00,,,0.00,Wunderground v.1.15,2013-10-08 05:30:00,
2013-10-07 19:35:00,78.0,67.8,30.09,NE,45,3.0,-999.0,71,0.00,,,0.00,Wunderground v.1.15,2013-10-08 05:35:00,
2013-10-07 19:40:00,78.0,67.8,30.09,NE,45,3.0,-999.0,71,0.00,,,0.00,Wunderground v.1.15,2013-10-08 05:40:00,
2013-10-07 19:45:00,77.7,68.4,30.10,NE,45,2.0,-999.0,73,0.00,,,0.00,Wunderground v.1.15,2013-10-08 05:45:00,
2013-10-07 19:50:00,77.7,68.4,30.10,NE,45,2.0,-999.0,73,0.00,,,0.00,Wunderground v.1.15,2013-10-08 05:50:00,
2013-10-07 19:55:00,77.7,68.4,30.10,NE,45,2.0,-999.0,73,0.00,,,0.00,Wunderground v.1.15,2013-10-08 05:55:00,
2013-10-07 20:00:00,77.7,68.4,30.10,NE,45,2.0,-999.0,73,0.00,,,0.00,Wunderground v.1.15,2013-10-08 06:00:00,
2013-10-07 20:05:00,77.7,68.4,30.10,NE,45,2.0,-999.0,73,0.00,,,0.00,Wunderground v.1.15,2013-10-08 06:05:00,
2013-10-07 20:10:00,77.7,68.4,30.10,NE,45,2.0,-999.0,73,0.00,,,0.00,Wunderground v.1.15,2013-10-08 06:10:00,
2013-10-07 20:15:00,76.6,70.7,30.11,NE,45,3.0,-999.0,82,0.00,,,0.00,Wunderground v.1.15,2013-10-08 06:15:00,
2013-10-07 20:20:00,76.6,70.7,30.11,NE,45,3.0,-999.0,82,0.00,,,0.00,Wunderground v.1.15,2013-10-08 06:20:00,
2013-10-07 20:25:00,76.6,70.7,30.11,NE,45,3.0,-999.0,82,0.00,,,0.00,Wunderground v.1.15,2013-10-08 06:25:00,
2013-10-07 20:30:00,76.6,70.7,30.11,NE,45,3.0,-999.0,82,0.00,,,0.00,Wunderground v.1.15,2013-10-08 06:30:00,
2013-10-07 20:35:00,76.6,70.7,30.11,NE,45,3.0,-999.0,82,0.00,,,0.00,Wunderground v.1.15,2013-10-08 06:35:00,
2013-10-07 20:40:00,76.6,70.7,30.11,NE,45,3.0,-999.0,82,0.00,,,0.00,Wunderground v.1.15,2013-10-08 06:40:00,
2013-10-07 20:45:00,75.2,69.0,30.11,NE,45,4.0,-999.0,81,0.00,,,0.00,Wunderground v.1.15,2013-10-08 06:45:00,
2013-10-07 20:50:00,75.2,69.0,30.11,NE,45,4.0,-999.0,81,0.00,,,0.00,Wunderground v.1.15,2013-10-08 06:50:00,
2013-10-07 20:55:00,75.2,69.0,30.11,NE,45,4.0,-999.0,81,0.00,,,0.00,Wunderground v.1.15,2013-10-08 06:55:00,
2013-10-07 21:00:00,75.2,69.0,30.11,NE,45,4.0,-999.0,81,0.00,,,0.00,Wunderground v.1.15,2013-10-08 07:00:00,
2013-10-07 21:05:00,75.2,69.0,30.11,NE,45,4.0,-999.0,81,0.00,,,0.00,Wunderground v.1.15,2013-10-08 07:05:00,
2013-10-07 21:10:00,75.2,69.0,30.11,NE,45,4.0,-999.0,81,0.00,,,0.00,Wunderground v.1.15,2013-10-08 07:10:00,
2013-10-07 21:15:00,75.5,67.8,30.12,ESE,113,1.0,-999.0,77,0.00,,,0.00,Wunderground v.1.15,2013-10-08 07:15:00,
2013-10-07 21:20:00,75.5,67.8,30.12,ESE,113,1.0,-999.0,77,0.00,,,0.00,Wunderground v.1.15,2013-10-08 07:20:00,
2013-10-07 21:25:00,75.5,67.8,30.12,ESE,113,1.0,-999.0,77,0.00,,,0.00,Wunderground v.1.15,2013-10-08 07:25:00,
2013-10-07 21:30:00,75.5,67.8,30.12,ESE,113,1.0,-999.0,77,0.00,,,0.00,Wunderground v.1.15,2013-10-08 07:30:00,
2013-10-07 21:35:00,75.5,67.8,30.12,ESE,113,1.0,-999.0,77,0.00,,,0.00,Wunderground v.1.15,2013-10-08 07:35:00,
2013-10-07 21:40:00,75.5,67.8,30.12,ESE,113,1.0,-999.0,77,0.00,,,0.00,Wunderground v.1.15,2013-10-08 07:40:00,
2013-10-07 21:45:00,75.5,66.6,30.12,East,90,0.0,-999.0,74,0.00,,,0.00,Wunderground v.1.15,2013-10-08 07:45:00,
2013-10-07 21:50:00,75.5,66.6,30.12,East,90,0.0,-999.0,74,0.00,,,0.00,Wunderground v.1.15,2013-10-08 07:50:00,
2013-10-07 21:55:00,75.5,66.6,30.12,East,90,0.0,-999.0,74,0.00,,,0.00,Wunderground v.1.15,2013-10-08 07:55:00,
2013-10-07 22:00:00,75.5,66.6,30.12,East,90,0.0,-999.0,74,0.00,,,0.00,Wunderground v.1.15,2013-10-08 08:00:00,
2013-10-07 22:05:00,75.5,66.6,30.12,East,90,0.0,-999.0,74,0.00,,,0.00,Wunderground v.1.15,2013-10-08 08:05:00,
2013-10-07 22:10:00,75.5,66.6,30.12,East,90,0.0,-999.0,74,0.00,,,0.00,Wunderground v.1.15,2013-10-08 08:10:00,
2013-10-07 22:15:00,75.5,65.8,30.12,East,90,3.0,-999.0,72,0.00,,,0.00,Wunderground v.1.15,2013-10-08 08:15:00,
2013-10-07 22:20:00,75.5,65.8,30.12,East,90,3.0,-999.0,72,0.00,,,0.00,Wunderground v.1.15,2013-10-08 08:20:00,
2013-10-07 22:25:00,75.5,65.8,30.12,East,90,3.0,-999.0,72,0.00,,,0.00,Wunderground v.1.15,2013-10-08 08:25:00,
2013-10-07 22:30:00,75.5,65.8,30.12,East,90,3.0,-999.0,72,0.00,,,0.00,Wunderground v.1.15,2013-10-08 08:30:00,
2013-10-07 22:35:00,75.5,65.8,30.12,East,90,3.0,-999.0,72,0.00,,,0.00,Wunderground v.1.15,2013-10-08 08:35:00,
2013-10-07 22:40:00,75.5,65.8,30.12,East,90,3.0,-999.0,72,0.00,,,0.00,Wunderground v.1.15,2013-10-08 08:40:00,
2013-10-07 22:45:00,76.0,67.9,30.11,East,90,0.0,-999.0,76,0.00,,,0.00,Wunderground v.1.15,2013-10-08 08:45:00,
2013-10-07 22:50:00,76.0,67.9,30.11,East,90,0.0,-999.0,76,0.00,,,0.00,Wunderground v.1.15,2013-10-08 08:50:00,
2013-10-07 22:55:00,76.0,67.9,30.11,East,90,0.0,-999.0,76,0.00,,,0.00,Wunderground v.1.15,2013-10-08 08:55:00,
2013-10-07 23:00:00,76.0,67.9,30.11,East,90,0.0,-999.0,76,0.00,,,0.00,Wunderground v.1.15,2013-10-08 09:00:00,
2013-10-07 23:05:00,76.0,67.9,30.11,East,90,0.0,-999.0,76,0.00,,,0.00,Wunderground v.1.15,2013-10-08 09:05:00,
2013-10-07 23:10:00,76.0,67.9,30.11,East,90,0.0,-999.0,76,0.00,,,0.00,Wunderground v.1.15,2013-10-08 09:10:00,
2013-10-07 23:15:00,75.8,66.5,30.11,East,90,1.0,-999.0,73,0.00,,,0.00,Wunderground v.1.15,2013-10-08 09:15:00,
2013-10-07 23:20:00,75.8,66.5,30.11,East,90,1.0,-999.0,73,0.00,,,0.00,Wunderground v.1.15,2013-10-08 09:20:00,
2013-10-07 23:25:00,75.8,66.5,30.11,East,90,1.0,-999.0,73,0.00,,,0.00,Wunderground v.1.15,2013-10-08 09:25:00,
2013-10-07 23:30:00,75.8,66.5,30.11,East,90,1.0,-999.0,73,0.00,,,0.00,Wunderground v.1.15,2013-10-08 09:30:00,
2013-10-07 23:35:00,75.8,66.5,30.11,East,90,1.0,-999.0,73,0.00,,,0.00,Wunderground v.1.15,2013-10-08 09:35:00,
2013-10-07 23:40:00,75.8,66.5,30.11,East,90,1.0,-999.0,73,0.00,,,0.00,Wunderground v.1.15,2013-10-08 09:40:00,
2013-10-07 23:45:00,76.1,66.4,30.11,ESE,113,1.0,-999.0,72,0.00,,,0.00,Wunderground v.1.15,2013-10-08 09:45:00,
2013-10-07 23:50:00,76.1,66.4,30.11,ESE,113,1.0,-999.0,72,0.00,,,0.00,Wunderground v.1.15,2013-10-08 09:50:00,
2013-10-07 23:55:00,76.1,66.4,30.11,ESE,113,1.0,-999.0,72,0.00,,,0.00,Wunderground v.1.15,2013-10-08 09:55:00,